Time;durP1;ratioP1;P1;durP2;ratioP2;P2;SDS_P1;SDS_P2;PMS_P1;PMS_P2;Temp;Humidity;BMP_temperature;BMP_pressure;BME280_temperature;BME280_humidity;BME280_pressure;Samples;Min_cycle;Max_cycle;Signal;HPM_P1;HPM_P2
2023/09/16 00:02:23;;;;;;;14.27;13.37;;;20.70;30.30;;;;;;5037499;28;20581;-79
2023/09/16 00:04:51;;;;;;;15.37;14.47;;;20.70;30.50;;;;;;5037771;28;20212;-77
2023/09/16 00:07:16;;;;;;;15.60;14.60;;;20.70;30.40;;;;;;5036477;28;20176;-79
2023/09/16 00:09:42;;;;;;;15.60;14.60;;;20.70;30.50;;;;;;5037566;28;20474;-77
2023/09/16 00:12:08;;;;;;;15.13;14.17;;;20.70;30.50;;;;;;5036892;28;20184;-79
2023/09/16 00:14:33;;;;;;;15.43;14.43;;;20.70;30.50;;;;;;5037002;28;20200;-78
2023/09/16 00:17:03;;;;;;;16.80;15.80;;;20.60;30.40;;;;;;5018560;28;20180;-77
2023/09/16 00:19:29;;;;;;;17.10;15.90;;;20.60;30.30;;;;;;5036791;28;20176;-78
2023/09/16 00:21:55;;;;;;;16.53;15.33;;;20.50;30.30;;;;;;5036752;28;20510;-79
2023/09/16 00:24:21;;;;;;;16.90;15.80;;;20.40;30.20;;;;;;5037412;28;20455;-78
2023/09/16 00:26:46;;;;;;;15.43;14.50;;;20.50;30.30;;;;;;5019841;28;20675;-78
2023/09/16 00:29:12;;;;;;;17.50;16.40;;;20.50;30.30;;;;;;5037996;28;20177;-78
2023/09/16 00:31:38;;;;;;;17.10;16.00;;;20.30;31.00;;;;;;5038348;28;20195;-79
2023/09/16 00:34:03;;;;;;;16.97;15.87;;;20.20;31.60;;;;;;5038817;28;20706;-79
2023/09/16 00:36:29;;;;;;;16.37;15.37;;;20.20;32.00;;;;;;5039079;28;20188;-78
2023/09/16 00:38:55;;;;;;;18.43;17.23;;;20.20;31.70;;;;;;5039610;28;20195;-78
2023/09/16 00:41:21;;;;;;;17.20;16.10;;;20.20;31.60;;;;;;5039751;28;20173;-78
2023/09/16 00:43:46;;;;;;;18.13;16.93;;;20.10;31.50;;;;;;5039666;28;20439;-79
2023/09/16 00:46:12;;;;;;;18.10;16.90;;;20.00;32.00;;;;;;5039203;28;20543;-79
2023/09/16 00:48:39;;;;;;;17.83;16.73;;;20.00;31.80;;;;;;5039746;28;20214;-78
2023/09/16 00:51:06;;;;;;;17.00;15.90;;;20.00;32.10;;;;;;5039504;28;20601;-79
2023/09/16 00:53:32;;;;;;;17.70;16.50;;;20.00;32.30;;;;;;5038811;28;20451;-78
2023/09/16 00:55:58;;;;;;;15.53;14.53;;;20.10;31.90;;;;;;5036725;28;20777;-77
2023/09/16 00:58:23;;;;;;;16.40;15.30;;;20.00;32.10;;;;;;5036205;28;20433;-77
2023/09/16 01:00:50;;;;;;;15.50;14.60;;;20.00;32.50;;;;;;5035665;28;20708;-77
2023/09/16 01:03:16;;;;;;;16.17;15.17;;;19.90;32.70;;;;;;5035943;28;20212;-77
2023/09/16 01:05:45;;;;;;;16.00;15.00;;;20.00;32.90;;;;;;5035807;28;20504;-78
2023/09/16 01:08:12;;;;;;;16.87;15.80;;;19.80;33.20;;;;;;5017747;28;20432;-79
2023/09/16 01:10:40;;;;;;;15.10;14.20;;;19.70;33.40;;;;;;5035639;28;20447;-77
2023/09/16 01:13:06;;;;;;;15.27;14.27;;;19.70;33.60;;;;;;5035760;28;20847;-77
2023/09/16 01:15:38;;;;;;;16.03;14.83;;;19.80;33.60;;;;;;5035785;28;20442;-77
2023/09/16 01:18:23;;;;;;;16.77;15.67;;;19.90;33.00;;;;;;5036204;28;20451;-78
2023/09/16 01:20:49;;;;;;;15.87;14.87;;;20.00;32.50;;;;;;5035541;28;20493;-78
2023/09/16 01:23:21;;;;;;;15.80;14.70;;;20.00;31.90;;;;;;5037079;28;20423;-79
2023/09/16 01:25:46;;;;;;;16.27;15.27;;;20.10;31.70;;;;;;5037654;28;20462;-79
2023/09/16 01:28:12;;;;;;;14.87;14.07;;;20.10;31.50;;;;;;5037956;28;20427;-78
2023/09/16 01:30:47;;;;;;;14.70;13.80;;;20.20;31.50;;;;;;5037383;28;20188;-77
2023/09/16 01:33:25;;;;;;;15.10;14.20;;;20.20;31.40;;;;;;5037769;28;20683;-77
2023/09/16 01:36:04;;;;;;;15.40;14.27;;;20.30;31.40;;;;;;5037864;28;20806;-78
2023/09/16 01:38:32;;;;;;;15.23;14.30;;;20.20;31.30;;;;;;5014253;28;20431;-77
2023/09/16 01:40:58;;;;;;;14.90;13.93;;;20.20;31.10;;;;;;5038224;28;20451;-78
2023/09/16 01:43:25;;;;;;;14.53;13.73;;;20.20;31.00;;;;;;5037830;28;20427;-77
2023/09/16 01:45:52;;;;;;;14.97;14.07;;;20.30;31.20;;;;;;5037868;28;20768;-78
2023/09/16 01:48:17;;;;;;;14.23;13.33;;;20.30;30.80;;;;;;5037941;28;20922;-78
2023/09/16 01:50:45;;;;;;;15.50;14.40;;;20.30;30.70;;;;;;5037349;28;20428;-78
2023/09/16 01:53:10;;;;;;;14.60;13.70;;;20.30;30.60;;;;;;5037549;28;20289;-77
2023/09/16 01:55:37;;;;;;;16.00;14.83;;;20.30;30.50;;;;;;5037461;28;20474;-79
2023/09/16 01:58:03;;;;;;;15.70;14.60;;;20.30;30.90;;;;;;5019940;28;20188;-78
2023/09/16 02:00:28;;;;;;;16.00;15.07;;;20.20;30.80;;;;;;5037565;28;20804;-79
2023/09/16 02:02:54;;;;;;;15.60;14.70;;;20.20;30.90;;;;;;5037673;28;20299;-77
2023/09/16 02:05:20;;;;;;;16.37;15.37;;;20.20;31.00;;;;;;5037697;28;20205;-78
2023/09/16 02:07:46;;;;;;;15.93;14.93;;;20.20;31.20;;;;;;5038200;28;20180;-79
2023/09/16 02:10:11;;;;;;;15.07;14.17;;;20.20;31.20;;;;;;5037452;28;20429;-79
2023/09/16 02:12:37;;;;;;;15.70;14.80;;;20.10;31.40;;;;;;5019548;28;20204;-78
2023/09/16 02:15:04;;;;;;;16.03;14.93;;;19.80;32.50;;;;;;5037436;28;20278;-78
2023/09/16 02:17:30;;;;;;;14.73;13.93;;;19.50;33.80;;;;;;5037447;28;20180;-78
2023/09/16 02:19:55;;;;;;;15.33;14.43;;;19.40;34.60;;;;;;5038212;28;20796;-78
2023/09/16 02:22:21;;;;;;;15.17;14.37;;;19.40;34.00;;;;;;5037193;28;20565;-78
2023/09/16 02:24:48;;;;;;;15.97;15.07;;;19.30;34.70;;;;;;5037134;28;20216;-77
2023/09/16 02:27:13;;;;;;;16.97;15.97;;;19.20;35.10;;;;;;5037730;28;20188;-78
2023/09/16 02:29:39;;;;;;;15.70;14.70;;;19.20;35.60;;;;;;5018763;28;20427;-77
2023/09/16 02:32:04;;;;;;;15.90;14.80;;;19.20;35.60;;;;;;5037063;28;20610;-78
2023/09/16 02:34:33;;;;;;;15.90;14.90;;;19.20;35.90;;;;;;5036644;28;20284;-78
2023/09/16 02:36:59;;;;;;;15.10;14.00;;;19.30;35.30;;;;;;5037617;28;20267;-78
2023/09/16 02:39:25;;;;;;;16.40;15.30;;;19.50;34.70;;;;;;5037464;28;20424;-78
2023/09/16 02:41:51;;;;;;;17.20;16.17;;;19.60;34.40;;;;;;5038036;28;20415;-78
2023/09/16 02:44:16;;;;;;;16.97;15.77;;;19.70;33.80;;;;;;5037272;28;20479;-78
2023/09/16 02:46:42;;;;;;;15.10;14.30;;;19.70;33.40;;;;;;5037589;28;20188;-77
2023/09/16 02:49:07;;;;;;;15.17;14.33;;;19.70;33.20;;;;;;5037815;28;20189;-77
2023/09/16 02:51:33;;;;;;;15.97;14.97;;;19.80;32.90;;;;;;5037372;28;20185;-78
2023/09/16 02:54:00;;;;;;;14.80;14.00;;;19.80;32.60;;;;;;5039546;28;20212;-78
2023/09/16 02:56:25;;;;;;;16.03;15.03;;;19.90;32.50;;;;;;5041316;28;20177;-78
2023/09/16 02:58:52;;;;;;;17.33;16.23;;;19.90;32.40;;;;;;5038779;28;20428;-77
2023/09/16 03:01:18;;;;;;;16.60;15.50;;;19.90;32.40;;;;;;5039029;28;20596;-78
2023/09/16 03:03:44;;;;;;;17.33;16.27;;;19.90;32.40;;;;;;5038364;28;20482;-77
2023/09/16 03:06:09;;;;;;;16.57;15.57;;;19.90;32.30;;;;;;5038455;28;20192;-78
2023/09/16 03:08:35;;;;;;;17.57;16.50;;;19.90;32.30;;;;;;5038308;28;20195;-76
2023/09/16 03:11:03;;;;;;;16.33;15.33;;;19.90;32.20;;;;;;5038357;28;20191;-77
2023/09/16 03:13:28;;;;;;;15.17;14.27;;;19.80;32.30;;;;;;5038374;28;20200;-77
2023/09/16 03:16:13;;;;;;;16.87;15.87;;;19.80;32.40;;;;;;5038493;28;20423;-77
2023/09/16 03:18:38;;;;;;;16.53;15.23;;;19.80;32.30;;;;;;5020807;28;20231;-77
2023/09/16 03:21:04;;;;;;;15.70;14.80;;;19.90;32.40;;;;;;5038087;28;20419;-77
2023/09/16 03:23:29;;;;;;;16.17;14.90;;;19.80;32.30;;;;;;5020686;28;20183;-77
2023/09/16 03:25:55;;;;;;;15.80;14.80;;;19.90;32.80;;;;;;5039008;28;20193;-77
2023/09/16 03:28:21;;;;;;;15.20;14.30;;;19.90;31.90;;;;;;5038286;28;20177;-77
2023/09/16 03:30:47;;;;;;;16.13;15.13;;;19.80;32.10;;;;;;5038193;28;20181;-77
2023/09/16 03:33:12;;;;;;;16.63;15.50;;;19.80;32.20;;;;;;5038371;28;20512;-77
2023/09/16 03:35:38;;;;;;;15.53;14.43;;;19.80;32.20;;;;;;5038867;28;20615;-78
2023/09/16 03:38:04;;;;;;;16.97;15.97;;;19.80;32.40;;;;;;5038241;28;20176;-77
2023/09/16 03:40:30;;;;;;;16.40;15.30;;;19.80;32.70;;;;;;5038246;28;20427;-78
2023/09/16 03:42:56;;;;;;;16.57;15.47;;;19.80;32.80;;;;;;5038561;28;20488;-78
2023/09/16 03:45:21;;;;;;;16.67;15.57;;;19.70;32.80;;;;;;5037904;28;20204;-78
2023/09/16 03:47:47;;;;;;;16.87;15.83;;;19.70;33.00;;;;;;5038170;28;20189;-77
2023/09/16 03:50:12;;;;;;;17.87;16.57;;;19.80;33.10;;;;;;5019761;28;20537;-78
2023/09/16 03:52:38;;;;;;;16.40;15.40;;;19.80;33.00;;;;;;5037456;28;20212;-78
2023/09/16 03:55:04;;;;;;;15.40;14.50;;;19.80;32.80;;;;;;5038231;28;20193;-78
2023/09/16 03:57:29;;;;;;;16.00;15.00;;;19.70;32.80;;;;;;5037968;28;20223;-78
2023/09/16 03:59:55;;;;;;;15.17;14.20;;;19.70;32.50;;;;;;5039327;28;20189;-78
2023/09/16 04:02:20;;;;;;;15.90;14.90;;;19.80;32.50;;;;;;5039378;28;20189;-78
2023/09/16 04:04:46;;;;;;;16.27;15.17;;;19.70;32.70;;;;;;5038807;28;20200;-78
2023/09/16 04:07:11;;;;;;;17.60;16.37;;;19.70;32.90;;;;;;5039828;28;20188;-78
2023/09/16 04:09:37;;;;;;;17.13;16.03;;;19.70;33.20;;;;;;5021773;28;20406;-77
2023/09/16 04:12:02;;;;;;;17.10;15.97;;;19.70;33.30;;;;;;5020461;28;20181;-78
2023/09/16 04:14:28;;;;;;;16.57;15.37;;;19.70;33.50;;;;;;5039836;28;20330;-78
2023/09/16 04:16:54;;;;;;;16.23;15.23;;;19.80;33.40;;;;;;5039358;28;20234;-79
2023/09/16 04:19:19;;;;;;;17.07;15.97;;;19.70;33.30;;;;;;5039083;28;20192;-77
2023/09/16 04:21:46;;;;;;;17.43;16.33;;;19.70;33.50;;;;;;5021308;28;20720;-78
2023/09/16 04:24:12;;;;;;;17.43;16.30;;;19.70;33.60;;;;;;5039316;28;20212;-78
2023/09/16 04:26:38;;;;;;;17.53;16.23;;;19.60;33.90;;;;;;5039231;28;20446;-78
2023/09/16 04:29:03;;;;;;;17.67;16.40;;;19.50;34.20;;;;;;5038897;28;20419;-79
2023/09/16 04:31:32;;;;;;;16.23;15.23;;;19.50;34.20;;;;;;5038599;28;20283;-78
2023/09/16 04:33:57;;;;;;;17.03;15.83;;;19.50;34.30;;;;;;5039507;28;20524;-78
2023/09/16 04:36:23;;;;;;;16.47;15.47;;;19.50;34.40;;;;;;5039716;28;20427;-79
2023/09/16 04:38:49;;;;;;;18.63;17.43;;;19.50;34.30;;;;;;5039696;28;20176;-78
2023/09/16 04:41:15;;;;;;;18.17;16.77;;;19.50;34.20;;;;;;5039308;28;20184;-78
2023/09/16 04:43:41;;;;;;;17.70;16.60;;;19.60;34.10;;;;;;5021168;28;20266;-78
2023/09/16 04:46:06;;;;;;;18.30;17.00;;;19.60;34.20;;;;;;5040032;28;20432;-77
2023/09/16 04:48:32;;;;;;;17.27;16.20;;;19.60;34.30;;;;;;5038811;28;20458;-77
2023/09/16 04:50:57;;;;;;;18.43;17.13;;;19.50;34.10;;;;;;5039291;28;20663;-78
2023/09/16 04:53:23;;;;;;;17.47;16.17;;;19.50;34.40;;;;;;5038922;28;20217;-78
2023/09/16 04:55:57;;;;;;;17.70;16.30;;;19.50;34.40;;;;;;5038640;28;20640;-78
2023/09/16 04:58:23;;;;;;;17.40;16.27;;;19.40;34.00;;;;;;5038804;28;20577;-78
2023/09/16 05:00:49;;;;;;;17.30;16.30;;;19.40;34.00;;;;;;5038189;28;20438;-77
2023/09/16 05:03:14;;;;;;;16.43;15.27;;;19.40;34.00;;;;;;5021161;28;20195;-77
2023/09/16 05:05:40;;;;;;;16.40;15.30;;;19.40;33.80;;;;;;5020886;28;20197;-78
2023/09/16 05:08:05;;;;;;;16.73;15.70;;;19.10;34.40;;;;;;5039750;28;20600;-78
2023/09/16 05:10:31;;;;;;;19.07;17.67;;;18.90;34.90;;;;;;5038461;28;20188;-78
2023/09/16 05:12:57;;;;;;;17.43;16.43;;;18.70;36.20;;;;;;5038678;28;20204;-78
2023/09/16 05:15:22;;;;;;;17.43;16.33;;;18.60;36.20;;;;;;5037385;28;20473;-78
2023/09/16 05:17:48;;;;;;;18.70;17.30;;;18.40;37.50;;;;;;5040474;28;20200;-78
2023/09/16 05:20:13;;;;;;;16.80;15.77;;;18.30;38.10;;;;;;5040689;28;20203;-78
2023/09/16 05:22:39;;;;;;;17.73;16.63;;;18.30;38.80;;;;;;5040543;28;20222;-78
2023/09/16 05:25:08;;;;;;;17.40;16.30;;;18.10;38.60;;;;;;5028764;22;20233;-76
2023/09/16 05:27:33;;;;;;;16.63;15.53;;;18.10;39.40;;;;;;5004262;28;20236;-76
2023/09/16 05:30:01;;;;;;;17.63;16.43;;;18.10;38.90;;;;;;4996149;28;20937;-76
2023/09/16 05:32:27;;;;;;;17.13;16.03;;;18.10;38.90;;;;;;5010718;28;20202;-76
2023/09/16 05:34:52;;;;;;;17.60;16.50;;;18.20;39.50;;;;;;5003147;28;21007;-76
2023/09/16 05:37:18;;;;;;;17.77;16.47;;;18.20;39.60;;;;;;5004093;28;20192;-76
2023/09/16 05:39:44;;;;;;;18.40;17.20;;;18.20;39.70;;;;;;5008245;28;20197;-76
2023/09/16 05:42:09;;;;;;;17.83;16.63;;;18.20;39.60;;;;;;5014764;28;20287;-76
2023/09/16 05:44:35;;;;;;;17.93;16.73;;;18.30;39.30;;;;;;5014765;28;20257;-77
2023/09/16 05:47:01;;;;;;;17.87;16.60;;;18.20;39.70;;;;;;5015070;28;20409;-75
2023/09/16 05:49:27;;;;;;;18.23;16.83;;;18.10;41.00;;;;;;5015234;28;20507;-77
2023/09/16 05:51:52;;;;;;;18.13;16.93;;;18.10;40.50;;;;;;5015383;28;20193;-76
2023/09/16 05:54:18;;;;;;;19.10;17.80;;;18.30;40.20;;;;;;5014396;28;20219;-76
2023/09/16 05:56:46;;;;;;;18.30;17.10;;;18.40;39.40;;;;;;5015626;28;20293;-76
2023/09/16 05:59:12;;;;;;;19.23;17.93;;;18.50;39.60;;;;;;5015190;28;20523;-76
2023/09/16 06:01:38;;;;;;;20.33;18.90;;;18.50;39.60;;;;;;5013114;28;20503;-75
2023/09/16 06:04:03;;;;;;;19.70;18.40;;;18.50;40.30;;;;;;5013856;28;20460;-76
2023/09/16 06:06:29;;;;;;;19.47;18.20;;;18.60;39.70;;;;;;5013092;28;20193;-77
2023/09/16 06:08:55;;;;;;;18.40;17.20;;;18.70;39.10;;;;;;5014182;28;20177;-77
2023/09/16 06:11:22;;;;;;;19.67;18.47;;;18.70;39.20;;;;;;5013615;28;20219;-76
2023/09/16 06:13:48;;;;;;;20.07;18.67;;;18.80;39.30;;;;;;5012797;28;20320;-76
2023/09/16 06:16:13;;;;;;;19.97;18.57;;;18.80;39.30;;;;;;5015281;28;20448;-76
2023/09/16 06:18:39;;;;;;;20.70;18.90;;;18.80;39.30;;;;;;5015143;28;20170;-76
2023/09/16 06:21:04;;;;;;;19.07;17.87;;;19.00;38.70;;;;;;5014881;28;20181;-76
2023/09/16 06:23:30;;;;;;;20.60;19.30;;;19.00;38.90;;;;;;5014649;28;20196;-76
2023/09/16 06:25:56;;;;;;;21.07;19.50;;;19.00;38.80;;;;;;5013905;28;20228;-75
2023/09/16 06:28:21;;;;;;;18.83;17.63;;;19.10;38.80;;;;;;5012600;28;20189;-76
2023/09/16 06:30:47;;;;;;;19.40;18.20;;;19.10;38.80;;;;;;5014327;28;20250;-76
2023/09/16 06:33:12;;;;;;;20.73;19.37;;;19.10;38.90;;;;;;5014974;28;20197;-76
2023/09/16 06:35:38;;;;;;;20.23;18.73;;;19.10;38.90;;;;;;5014581;28;20207;-76
2023/09/16 06:38:03;;;;;;;19.57;18.17;;;19.10;39.00;;;;;;5015284;28;20184;-76
2023/09/16 06:40:29;;;;;;;19.63;18.23;;;19.10;38.90;;;;;;5014621;28;20169;-76
2023/09/16 06:42:55;;;;;;;20.67;19.27;;;19.10;38.80;;;;;;5015245;28;20228;-76
2023/09/16 06:45:20;;;;;;;20.20;18.87;;;19.10;39.50;;;;;;5014390;28;20197;-76
2023/09/16 06:47:46;;;;;;;19.80;18.50;;;19.10;39.20;;;;;;5014466;28;20196;-76
2023/09/16 06:50:12;;;;;;;21.03;19.30;;;19.10;39.10;;;;;;5013591;28;20173;-76
2023/09/16 06:52:38;;;;;;;21.17;19.67;;;19.20;38.80;;;;;;5011855;28;20213;-77
2023/09/16 06:55:07;;;;;;;20.40;18.90;;;19.30;38.60;;;;;;5013045;28;20567;-76
2023/09/16 06:57:32;;;;;;;20.53;19.03;;;19.30;38.50;;;;;;5012746;28;20533;-76
2023/09/16 06:59:58;;;;;;;20.93;19.63;;;19.30;39.00;;;;;;5014550;28;20408;-77
2023/09/16 07:02:24;;;;;;;19.50;18.30;;;19.40;38.20;;;;;;5014596;28;20169;-76
2023/09/16 07:04:50;;;;;;;22.53;21.03;;;19.50;38.00;;;;;;5014040;28;20193;-76
2023/09/16 07:07:16;;;;;;;19.97;18.57;;;19.50;37.80;;;;;;5013543;28;20161;-76
2023/09/16 07:09:41;;;;;;;19.13;17.90;;;19.60;37.50;;;;;;5013507;28;20408;-77
2023/09/16 07:12:07;;;;;;;21.50;19.90;;;19.70;37.40;;;;;;5013052;28;20220;-76
2023/09/16 07:14:39;;;;;;;21.73;20.20;;;19.70;37.30;;;;;;5012219;28;20209;-76
2023/09/16 07:17:05;;;;;;;18.93;17.70;;;19.80;37.30;;;;;;5011684;28;20412;-76
2023/09/16 07:19:31;;;;;;;21.60;20.00;;;19.90;37.10;;;;;;5011686;28;20475;-77
2023/09/16 07:21:57;;;;;;;21.23;19.70;;;19.90;36.90;;;;;;5013482;28;20166;-76
2023/09/16 07:24:22;;;;;;;21.10;19.60;;;20.00;36.60;;;;;;5013275;28;20662;-77
2023/09/16 07:26:49;;;;;;;20.40;18.90;;;20.00;36.50;;;;;;5011616;28;20180;-77
2023/09/16 07:29:15;;;;;;;20.23;18.83;;;20.00;36.20;;;;;;5013361;28;20661;-77
2023/09/16 07:31:40;;;;;;;19.13;17.73;;;20.10;35.70;;;;;;5013721;28;20574;-77
2023/09/16 07:34:06;;;;;;;21.23;19.90;;;20.10;35.10;;;;;;5015860;28;20267;-76
2023/09/16 07:36:31;;;;;;;20.83;19.33;;;20.10;34.90;;;;;;5015552;28;20672;-76
2023/09/16 07:38:57;;;;;;;18.57;17.37;;;20.10;35.00;;;;;;5015460;28;20188;-77
2023/09/16 07:41:23;;;;;;;21.07;19.57;;;20.10;35.20;;;;;;5018885;28;20252;-76
2023/09/16 07:43:49;;;;;;;19.30;18.00;;;20.20;35.30;;;;;;5018727;28;20173;-77
2023/09/16 07:46:14;;;;;;;20.73;19.17;;;20.20;34.80;;;;;;5019271;28;20415;-75
2023/09/16 07:48:40;;;;;;;19.37;17.87;;;20.30;34.30;;;;;;5017560;28;20177;-76
2023/09/16 07:51:06;;;;;;;20.53;19.00;;;20.30;34.50;;;;;;5017419;28;20678;-75
2023/09/16 07:53:34;;;;;;;19.13;17.93;;;20.30;34.70;;;;;;5018569;28;20577;-76
2023/09/16 07:55:59;;;;;;;21.47;19.97;;;20.40;34.80;;;;;;5019730;28;20192;-76
2023/09/16 07:58:25;;;;;;;21.10;19.60;;;20.40;34.30;;;;;;5018244;28;20420;-76
2023/09/16 08:00:51;;;;;;;20.97;19.40;;;20.40;34.20;;;;;;5018349;28;20185;-76
2023/09/16 08:03:16;;;;;;;20.60;19.30;;;20.40;34.30;;;;;;5019437;28;20696;-76
2023/09/16 08:05:43;;;;;;;21.77;20.27;;;20.50;34.40;;;;;;5018644;28;20208;-76
2023/09/16 08:08:09;;;;;;;18.70;17.40;;;20.60;34.70;;;;;;5019525;28;20173;-76
2023/09/16 08:10:34;;;;;;;20.00;18.60;;;20.50;34.30;;;;;;5019383;28;20423;-76
2023/09/16 08:13:00;;;;;;;18.30;17.10;;;20.60;34.20;;;;;;5018830;28;20204;-76
2023/09/16 08:15:25;;;;;;;19.07;17.70;;;20.70;34.10;;;;;;5016569;28;20239;-76
2023/09/16 08:17:52;;;;;;;19.20;18.00;;;20.70;33.60;;;;;;5017540;28;20266;-77
2023/09/16 08:20:20;;;;;;;19.50;18.20;;;20.80;33.70;;;;;;5017824;28;20256;-75
2023/09/16 08:22:46;;;;;;;19.00;17.80;;;20.80;33.40;;;;;;5017294;28;20481;-75
2023/09/16 08:25:12;;;;;;;19.50;18.10;;;20.80;33.40;;;;;;5017056;28;21026;-76
2023/09/16 08:27:37;;;;;;;16.70;15.53;;;20.90;33.20;;;;;;5016546;28;20623;-76
2023/09/16 08:30:03;;;;;;;17.20;16.10;;;20.90;33.30;;;;;;5017864;28;20208;-75
2023/09/16 08:32:29;;;;;;;17.60;16.47;;;21.00;33.30;;;;;;5016063;28;20201;-77
2023/09/16 08:34:57;;;;;;;17.43;16.13;;;21.10;33.10;;;;;;5016130;28;20670;-74
2023/09/16 08:37:23;;;;;;;17.20;16.20;;;21.10;32.60;;;;;;5014915;28;20240;-76
2023/09/16 08:39:49;;;;;;;18.47;17.33;;;21.20;32.50;;;;;;5015602;28;20413;-76
2023/09/16 08:42:37;;;;;;;18.07;16.87;;;21.20;32.40;;;;;;5016359;28;20433;-76
2023/09/16 08:45:05;;;;;;;17.80;16.43;;;21.30;32.40;;;;;;5017005;28;20249;-76
2023/09/16 08:47:39;;;;;;;17.73;16.53;;;21.30;32.30;;;;;;5018408;28;20504;-76
2023/09/16 08:50:07;;;;;;;17.97;16.77;;;21.40;32.10;;;;;;5017627;28;20420;-76
2023/09/16 08:52:46;;;;;;;17.40;16.30;;;21.40;31.10;;;;;;5016327;28;20460;-76
2023/09/16 08:55:13;;;;;;;16.70;15.60;;;21.50;31.50;;;;;;5016682;28;20479;-75
2023/09/16 08:57:45;;;;;;;16.60;15.40;;;21.60;31.20;;;;;;5016356;28;20408;-76
2023/09/16 09:00:11;;;;;;;16.30;15.30;;;21.70;30.90;;;;;;5016981;28;20428;-76
2023/09/16 09:02:39;;;;;;;16.70;15.50;;;22.00;30.60;;;;;;5016818;28;20424;-76
2023/09/16 09:05:06;;;;;;;15.23;14.33;;;22.40;29.00;;;;;;5017732;28;20795;-76
2023/09/16 09:07:36;;;;;;;15.77;14.77;;;22.80;27.90;;;;;;5020111;28;20491;-75
2023/09/16 09:10:01;;;;;;;15.07;14.27;;;23.00;27.90;;;;;;5020443;28;20428;-75
2023/09/16 09:12:28;;;;;;;15.80;14.70;;;23.20;26.90;;;;;;5016593;28;20427;-76
2023/09/16 09:14:54;;;;;;;14.83;13.93;;;23.40;26.50;;;;;;5017006;28;20181;-76
2023/09/16 09:17:21;;;;;;;15.13;14.23;;;23.70;26.60;;;;;;5017184;28;20404;-76
2023/09/16 09:19:48;;;;;;;15.30;14.20;;;23.80;25.50;;;;;;5016496;28;20412;-76
2023/09/16 09:22:14;;;;;;;14.70;13.90;;;23.90;25.30;;;;;;5016128;28;20408;-76
2023/09/16 09:24:40;;;;;;;14.93;13.73;;;24.00;24.40;;;;;;5015086;28;20471;-76
2023/09/16 09:27:06;;;;;;;12.73;12.03;;;24.20;24.30;;;;;;5016460;28;20561;-76
2023/09/16 09:29:32;;;;;;;12.50;11.70;;;24.40;24.70;;;;;;5014310;28;20587;-76
2023/09/16 09:31:58;;;;;;;12.10;11.40;;;24.60;24.80;;;;;;5014933;28;20736;-76
2023/09/16 09:34:28;;;;;;;12.50;11.70;;;24.60;24.00;;;;;;5016589;28;20499;-76
2023/09/16 09:36:54;;;;;;;11.97;11.27;;;24.80;23.30;;;;;;5017220;28;20170;-76
2023/09/16 09:39:19;;;;;;;12.73;11.67;;;24.90;22.90;;;;;;5016791;28;20451;-77
2023/09/16 09:41:46;;;;;;;12.87;11.90;;;24.90;22.90;;;;;;5016791;28;20264;-76
2023/09/16 09:44:13;;;;;;;13.17;12.27;;;25.10;22.40;;;;;;5014500;28;20680;-76
2023/09/16 09:46:39;;;;;;;11.80;11.03;;;25.10;21.80;;;;;;5015175;28;20420;-76
2023/09/16 09:49:05;;;;;;;12.30;11.43;;;25.00;20.80;;;;;;5014183;28;20460;-77
2023/09/16 09:51:31;;;;;;;12.00;11.20;;;25.00;21.30;;;;;;5015059;28;20428;-75
2023/09/16 09:53:57;;;;;;;12.00;11.30;;;25.10;21.10;;;;;;5014187;28;20220;-77
2023/09/16 09:56:23;;;;;;;12.00;11.30;;;25.00;21.20;;;;;;5015384;28;20412;-77
2023/09/16 09:58:50;;;;;;;12.20;11.50;;;25.10;20.80;;;;;;5013234;28;20258;-76
2023/09/16 10:01:16;;;;;;;11.60;11.00;;;25.10;20.80;;;;;;5014556;28;20419;-76
2023/09/16 10:03:48;;;;;;;11.63;11.00;;;25.10;20.50;;;;;;5013227;28;20810;-76
2023/09/16 10:06:15;;;;;;;11.60;11.00;;;25.20;20.90;;;;;;5013866;28;20172;-77
2023/09/16 10:08:41;;;;;;;11.17;10.47;;;25.30;20.90;;;;;;5014550;28;20431;-77
2023/09/16 10:11:07;;;;;;;11.43;10.63;;;25.40;21.00;;;;;;5015318;28;20912;-76
2023/09/16 10:13:32;;;;;;;11.73;11.03;;;25.50;20.70;;;;;;5013718;28;20212;-76
2023/09/16 10:16:00;;;;;;;11.83;11.17;;;25.50;20.00;;;;;;5014400;28;20613;-76
2023/09/16 10:18:29;;;;;;;12.10;11.40;;;25.60;20.00;;;;;;5012690;28;20181;-76
2023/09/16 10:20:55;;;;;;;12.63;11.73;;;25.60;19.20;;;;;;5013878;28;20440;-76
2023/09/16 10:23:22;;;;;;;10.97;10.37;;;25.50;18.60;;;;;;5013157;28;20423;-76
2023/09/16 10:25:48;;;;;;;12.00;11.40;;;25.60;19.00;;;;;;5012668;28;20545;-76
2023/09/16 10:28:14;;;;;;;11.73;11.13;;;25.60;18.60;;;;;;5013333;28;20416;-76
2023/09/16 10:30:41;;;;;;;11.93;11.23;;;25.70;18.70;;;;;;5014266;28;20796;-77
2023/09/16 10:33:11;;;;;;;17.67;16.27;;;25.70;18.20;;;;;;5012471;28;21071;-76
2023/09/16 10:35:42;;;;;;;13.10;12.00;;;25.80;18.10;;;;;;5014006;28;20494;-76
2023/09/16 10:38:11;;;;;;;11.67;11.07;;;25.90;18.00;;;;;;5013030;28;20463;-76
2023/09/16 10:40:38;;;;;;;11.73;11.13;;;25.90;17.80;;;;;;5015087;28;20807;-77
2023/09/16 10:43:04;;;;;;;10.97;10.37;;;25.80;17.20;;;;;;5015064;28;20418;-76
2023/09/16 10:45:31;;;;;;;11.17;10.57;;;25.90;17.50;;;;;;5013729;28;20440;-76
2023/09/16 10:48:01;;;;;;;12.23;11.53;;;25.90;16.90;;;;;;5014946;28;20408;-77
2023/09/16 10:50:30;;;;;;;11.43;10.80;;;26.00;16.60;;;;;;5014374;28;20963;-76
2023/09/16 10:53:12;;;;;;;11.40;10.80;;;25.90;16.30;;;;;;5014692;28;20551;-76
2023/09/16 10:55:57;;;;;;;10.83;10.30;;;26.00;16.20;;;;;;5014782;28;20428;-76
2023/09/16 10:58:29;;;;;;;11.63;10.93;;;26.00;15.30;;;;;;5014920;28;20503;-76
2023/09/16 11:00:58;;;;;;;11.00;10.50;;;26.00;15.20;;;;;;5014715;28;20426;-76
2023/09/16 11:03:30;;;;;;;9.40;9.00;;;26.00;15.30;;;;;;5013139;28;20447;-76
2023/09/16 11:05:58;;;;;;;9.90;9.40;;;26.00;14.80;;;;;;5014832;28;20459;-76
2023/09/16 11:08:25;;;;;;;9.90;9.40;;;26.00;14.30;;;;;;5014472;28;20439;-76
2023/09/16 11:10:52;;;;;;;9.00;8.60;;;25.90;14.20;;;;;;5013523;28;20842;-76
2023/09/16 11:13:19;;;;;;;8.53;8.23;;;25.90;13.50;;;;;;5014388;28;20467;-76
2023/09/16 11:15:47;;;;;;;9.30;8.90;;;25.90;12.50;;;;;;5017540;28;20438;-76
2023/09/16 11:18:17;;;;;;;9.50;9.10;;;25.90;12.80;;;;;;5017654;28;20423;-76
2023/09/16 11:20:43;;;;;;;9.63;9.20;;;25.90;13.30;;;;;;5017729;28;21148;-76
2023/09/16 11:23:09;;;;;;;9.97;9.40;;;25.90;13.10;;;;;;5018124;28;20416;-76
2023/09/16 11:25:40;;;;;;;9.13;8.73;;;25.90;13.60;;;;;;5031740;22;20491;-79
2023/09/16 11:28:18;;;;;;;9.10;8.70;;;26.00;13.10;;;;;;5017688;28;20420;-81
2023/09/16 11:30:58;;;;;;;9.60;9.17;;;26.20;12.70;;;;;;5012463;28;20435;-79
2023/09/16 11:33:35;;;;;;;9.57;9.17;;;26.20;12.70;;;;;;5022494;28;20462;-78
2023/09/16 11:36:17;;;;;;;8.53;8.13;;;26.10;13.20;;;;;;5023318;28;20458;-78
2023/09/16 11:39:09;;;;;;;8.60;8.30;;;26.10;12.60;;;;;;5024013;28;20506;-78
2023/09/16 11:41:35;;;;;;;9.40;9.00;;;26.00;12.30;;;;;;5015732;28;20430;-78
2023/09/16 11:44:02;;;;;;;9.30;8.90;;;26.00;12.60;;;;;;5022872;28;20436;-78
2023/09/16 11:46:30;;;;;;;13.57;12.30;;;25.90;12.50;;;;;;5015897;28;20412;-78
2023/09/16 11:48:57;;;;;;;9.50;9.03;;;25.90;12.70;;;;;;5017047;28;20447;-78
2023/09/16 11:51:24;;;;;;;9.33;8.93;;;26.00;12.60;;;;;;5015560;28;20944;-78
2023/09/16 11:53:55;;;;;;;10.00;9.60;;;26.10;12.60;;;;;;5014533;28;21035;-78
2023/09/16 11:56:26;;;;;;;10.47;9.97;;;26.30;11.60;;;;;;5017325;28;20423;-78
2023/09/16 11:58:54;;;;;;;10.27;8.87;;;26.20;11.50;;;;;;5017897;28;20523;-78
2023/09/16 12:01:25;;;;;;;9.20;8.80;;;26.10;11.60;;;;;;5016505;28;20436;-78
2023/09/16 12:03:51;;;;;;;9.00;8.60;;;26.10;11.40;;;;;;5016844;28;20440;-78
2023/09/16 12:06:20;;;;;;;9.37;9.07;;;26.00;11.40;;;;;;5020952;28;20795;-78
2023/09/16 12:08:47;;;;;;;9.03;8.63;;;26.00;10.90;;;;;;5023626;28;20456;-78
2023/09/16 12:11:13;;;;;;;8.60;8.23;;;26.10;11.30;;;;;;5016366;28;20447;-78
2023/09/16 12:13:41;;;;;;;8.90;8.50;;;26.00;10.30;;;;;;5018764;28;20452;-78
2023/09/16 12:16:09;;;;;;;8.60;8.30;;;26.00;10.50;;;;;;5018959;28;20926;-78
2023/09/16 12:18:35;;;;;;;9.40;8.90;;;26.10;10.10;;;;;;5024045;28;20514;-77
2023/09/16 12:21:02;;;;;;;9.60;9.20;;;26.20;11.00;;;;;;5017946;28;20425;-78
2023/09/16 12:23:30;;;;;;;9.90;9.50;;;26.20;10.00;;;;;;5017031;28;20808;-78
2023/09/16 12:25:55;;;;;;;9.67;9.27;;;26.30;9.30;;;;;;5016024;28;20462;-78
2023/09/16 12:28:23;;;;;;;9.43;8.93;;;26.50;10.30;;;;;;5020799;28;20443;-78